AirNav   Everest Fuels
 
 607 users online  

01AL Ware Island Airport
Clanton, Alabama, USA

GOING TO CLANTON?


FAA INFORMATION EFFECTIVE 31 JANUARY 2019

Location

FAA Identifier: 01AL
Lat/Long: 32-56-45.4420N / 086-30-49.9260W
32-56.757367N / 086-30.832100W
32.9459561 / -86.5138683
(estimated)
Elevation: 344 ft. / 104.9 m (surveyed)
Variation: 00W (1985)
From city: 9 miles NE of CLANTON, AL
Time zone: UTC -6 (UTC -5 during Daylight Saving Time)
Zip code: 35183

Airport Operations

Airport use: Private use. Permission required prior to landing
Control tower: no
ARTCC: ATLANTA CENTER
FSS: ANNISTON FLIGHT SERVICE STATION
Attendance: UNATNDD
Wind indicator: yes
Segmented circle: no
Lights: FOR LIRL RY N/S CALL 205-907-0737 OR 205-410-1930.

Airport Communications

WX AWOS-3PT at SCD (17 nm NE): 119.125 (256-249-2620)
WX ASOS at EET (19 nm NW): 134.325 (205-663-5881)

Airport Services

Airframe service: NONE
Powerplant service: NONE

Runway Information

Runway N/S

Dimensions: 2400 x 60 ft. / 732 x 18 m
Surface: turf
Runway edge lights: low intensity
RUNWAY N  RUNWAY S
Traffic pattern: rightright
Obstructions: treestrees

Airport Ownership and Management from official FAA records

Ownership: Privately-owned
Owner: RICHARD & BETTY MEYER
1000 WARE ISLAND
CLANTON, AL 35046
Phone (205) 907-0737
ARPT PHONE NUMBER 205-907-0737.

Airport Operational Statistics

Aircraft based on the field: 3
Single engine airplanes: 3
    
Aircraft operations: avg 33/month
100% transient general aviation

Instrument Procedures

There are no published instrument procedures at 01AL.

Some nearby airports with instrument procedures:

02A - Chilton County Airport (8 nm SW)
KSCD - Merkel Field Sylacauga Municipal Airport (17 nm NE)
KEET - Shelby County Airport (19 nm NW)
08A - Wetumpka Municipal Airport (27 nm S)
KALX - Thomas C Russell Field Airport (28 nm E)
 
Loc | Ops | Rwys | IFR | FBO | Links
Com | Nav | Svcs | Stats | Notes
Area around 01AL (Ware Island Airport)
 
Road maps at: MapQuest Bing Google
 
Aerial photo
No photo
 
Sectional chart

 
Airport distance calculator
Flying to Ware Island Airport? Find the distance to fly.

From to 01AL

Sunrise and sunset
Times for 15-Feb-2019
 Local
(UTC-6)
 Zulu
(UTC)
Morning civil twilight06:0512:05
Sunrise06:3012:30
Sunset17:3023:30
Evening civil twilight17:5523:55

Current date and time
Zulu (UTC)  16-Feb-2019 04:41:28
Local (UTC-6)  15-Feb-2019 22:41:28
 
METAR
KSCD 
17nm NE 
160415Z AUTO 22009G15KT 10SM OVC010 16/16 A2980 RMK AO2 T01610157
KEET 
20nm NW 
160353Z AUTO 20005KT 6SM -RA BR OVC006 16/16 A2979 RMK AO2 RAE16B35 SLP083 P0001 T01610156
KALX 
27nm E 
160415Z AUTO 21008KT 10SM -RA OVC012 16/15 A2980 RMK AO2 P0001 T01600150
KEKY 
30nm NW 
160356Z AUTO 21009KT 10SM -RA OVC004 16/16 A2979 RMK AO2 SLP104 P0001 T01610161
K1A9 
30nm S 
160415Z AUTO 20003KT 10SM DZ OVC027 16/16 A2981 RMK AO2 T01600159
TAF
KEET 
20nm NW 
160411Z 1604/1624 19005KT P6SM -RA OVC005 TEMPO 1607/1610 3SM -RA BR FM161000 26007KT 5SM -RA BR OVC005 FM161400 33006KT P6SM VCSH OVC012 FM161800 35007KT P6SM VCSH BKN025
NOTAMs
Click for the latest NOTAMs
NOTAMs are issued by the DoD/FAA and will open in a separate window not controlled by AirNav.

 

 
 

Would you like to see your business listed on this page?

 If your business provides an interesting product or service to pilots, flight crews, aircraft, or users of the Ware Island Airport, you should consider listing it here.  To start the listing process, click on the button below
 
Add a business
 

Other Pages about Ware Island Airport

Update a link
 
Copyright © AirNav, LLC. All rights reserved. Privacy Policy  Contact